createdAt,value
2022-08-26T00:01:17.669Z,4.55
2022-08-26T00:03:54.794Z,4.38
2022-08-26T00:06:25.347Z,4.63
2022-08-26T00:08:55.805Z,4.32
2022-08-26T00:11:28.980Z,5.20
2022-08-26T00:14:00.375Z,4.95
2022-08-26T00:16:32.265Z,3.75
2022-08-26T00:19:02.838Z,4.40
2022-08-26T00:21:33.080Z,4.30
2022-08-26T00:24:04.454Z,4.18
2022-08-26T00:26:37.682Z,4.50
2022-08-26T00:29:08.059Z,5.28
2022-08-26T00:31:39.940Z,4.90
2022-08-26T00:34:12.048Z,4.85
2022-08-26T00:36:42.585Z,4.50
2022-08-26T00:39:13.762Z,4.97
2022-08-26T00:41:47.434Z,5.10
2022-08-26T00:44:17.733Z,4.50
2022-08-26T00:46:51.960Z,4.47
2022-08-26T00:49:27.515Z,4.47
2022-08-26T00:52:03.718Z,4.82
2022-08-26T00:54:45.346Z,4.55
2022-08-26T00:57:20.063Z,4.47
2022-08-26T00:59:54.491Z,4.22
2022-08-26T01:02:25.006Z,4.85
2022-08-26T01:04:58.509Z,4.63
2022-08-26T01:07:30.277Z,4.53
2022-08-26T01:10:03.086Z,4.43
2022-08-26T01:12:42.244Z,5.47
2022-08-26T01:15:16.425Z,3.78
2022-08-26T01:17:47.477Z,4.32
2022-08-26T01:20:28.765Z,4.13
2022-08-26T01:23:03.896Z,4.47
2022-08-26T01:25:36.792Z,4.55
2022-08-26T01:28:10.587Z,4.07
2022-08-26T01:33:15.485Z,4.90
2022-08-26T01:35:46.248Z,4.25
2022-08-26T01:38:19.918Z,4.75
2022-08-26T01:43:25.281Z,4.47
2022-08-26T01:45:57.296Z,3.42
2022-08-26T01:48:30.411Z,3.88
2022-08-26T01:51:02.066Z,4.22
2022-08-26T01:53:35.220Z,3.65
2022-08-26T01:56:07.162Z,4.20
2022-08-26T01:58:41.389Z,4.15
2022-08-26T02:01:13.230Z,3.95
2022-08-26T02:03:51.732Z,3.67
2022-08-26T02:06:22.555Z,4.20
2022-08-26T02:08:59.197Z,3.70
2022-08-26T02:11:29.378Z,4.25
2022-08-26T02:14:03.432Z,3.40
2022-08-26T02:16:37.703Z,3.70
2022-08-26T02:19:09.583Z,3.35
2022-08-26T02:21:51.255Z,3.35
2022-08-26T02:24:27.869Z,3.85
2022-08-26T02:27:12.994Z,3.55
2022-08-26T02:29:47.825Z,4.22
2022-08-26T02:32:20.429Z,3.97
2022-08-26T02:34:50.610Z,3.90
2022-08-26T02:37:20.905Z,3.90
2022-08-26T02:39:55.926Z,3.72
2022-08-26T02:42:27.291Z,4.07
2022-08-26T02:44:57.456Z,3.50
2022-08-26T02:47:29.247Z,4.40
2022-08-26T02:50:03.108Z,3.97
2022-08-26T02:52:33.556Z,3.58
2022-08-26T02:55:08.175Z,5.13
2022-08-26T02:57:38.446Z,4.22
2022-08-26T03:00:12.064Z,4.13
2022-08-26T03:02:42.236Z,4.18
2022-08-26T03:05:14.368Z,3.63
2022-08-26T03:07:46.341Z,3.80
2022-08-26T03:10:19.670Z,4.53
2022-08-26T03:12:50.838Z,5.65
2022-08-26T03:15:22.910Z,4.63
2022-08-26T03:17:53.411Z,4.10
2022-08-26T03:20:24.036Z,4.10
2022-08-26T03:22:56.235Z,4.43
2022-08-26T03:25:29.964Z,4.20
2022-08-26T03:30:44.658Z,4.00
2022-08-26T03:33:16.939Z,4.00
2022-08-26T03:35:50.491Z,4.57
2022-08-26T03:38:22.195Z,5.43
2022-08-26T03:40:55.056Z,4.35
2022-08-26T03:43:26.959Z,4.33
2022-08-26T03:45:57.228Z,4.00
2022-08-26T03:48:27.469Z,4.50
2022-08-26T03:50:57.661Z,4.57
2022-08-26T03:53:28.151Z,4.25
2022-08-26T03:56:00.956Z,4.20
2022-08-26T03:58:32.264Z,4.40
2022-08-26T04:01:02.547Z,4.85
2022-08-26T04:03:45.798Z,4.00
2022-08-26T04:06:17.827Z,4.88
2022-08-26T04:08:48.087Z,4.35
2022-08-26T04:11:26.964Z,3.95
2022-08-26T04:13:57.492Z,3.88
2022-08-26T04:16:31.895Z,4.22
2022-08-26T04:19:02.380Z,4.50
2022-08-26T04:21:32.628Z,4.05
2022-08-26T04:24:03.564Z,4.72
2022-08-26T04:26:39.560Z,4.45
2022-08-26T04:29:16.174Z,3.92
2022-08-26T04:31:47.086Z,6.20
2022-08-26T04:34:19.495Z,3.83
2022-08-26T04:36:49.814Z,4.25
2022-08-26T04:39:20.911Z,3.95
2022-08-26T04:41:57.766Z,4.45
2022-08-26T04:44:30.379Z,4.25
2022-08-26T04:47:01.392Z,4.65
2022-08-26T04:49:35.519Z,4.82
2022-08-26T04:52:06.682Z,3.80
2022-08-26T04:54:37.924Z,4.50
2022-08-26T04:57:15.173Z,5.25
2022-08-26T05:02:16.364Z,4.10
2022-08-26T05:04:46.604Z,3.85
2022-08-26T05:07:17.702Z,4.28
2022-08-26T05:09:48.126Z,3.72
2022-08-26T05:12:20.947Z,4.65
2022-08-26T05:14:51.113Z,4.07
2022-08-26T05:17:22.107Z,4.28
2022-08-26T05:19:53.077Z,3.90
2022-08-26T05:22:23.248Z,3.75
2022-08-26T05:24:53.513Z,4.30
2022-08-26T05:27:27.068Z,3.92
2022-08-26T05:30:00.274Z,4.32
2022-08-26T05:32:32.169Z,3.90
2022-08-26T05:35:02.526Z,3.67
2022-08-26T05:37:33.138Z,4.35
2022-08-26T05:40:06.052Z,4.68
2022-08-26T05:42:40.138Z,3.92
2022-08-26T05:45:14.347Z,4.05
2022-08-26T05:47:44.496Z,3.63
2022-08-26T05:50:22.027Z,3.47
2022-08-26T05:52:56.420Z,4.25
2022-08-26T05:57:59.096Z,4.03
2022-08-26T06:00:33.034Z,3.80
2022-08-26T06:03:03.308Z,3.80
2022-08-26T06:05:38.288Z,3.40
2022-08-26T06:08:19.156Z,3.85
2022-08-26T06:10:51.987Z,4.30
2022-08-26T06:13:27.293Z,3.33
2022-08-26T06:16:02.661Z,4.18
2022-08-26T06:18:36.613Z,4.38
2022-08-26T06:21:16.711Z,4.35
2022-08-26T06:24:01.001Z,4.53
2022-08-26T06:26:31.842Z,4.53
2022-08-26T06:29:05.700Z,4.03
2022-08-26T06:31:37.658Z,4.75
2022-08-26T06:34:10.985Z,4.28
2022-08-26T06:36:43.992Z,4.10
2022-08-26T06:41:47.331Z,3.83
2022-08-26T06:44:21.079Z,3.95
2022-08-26T06:46:51.467Z,4.28
2022-08-26T06:49:27.251Z,4.43
2022-08-26T06:51:59.393Z,4.40
2022-08-26T06:54:31.951Z,3.97
2022-08-26T06:57:02.457Z,3.42
2022-08-26T06:59:36.303Z,3.22
2022-08-26T07:02:08.450Z,3.20
2022-08-26T07:04:41.141Z,3.72
2022-08-26T07:09:42.104Z,3.20
2022-08-26T07:12:12.880Z,3.03
2022-08-26T07:14:47.422Z,3.30
2022-08-26T07:17:20.444Z,3.60
2022-08-26T07:19:50.896Z,3.90
2022-08-26T07:22:25.920Z,3.40
2022-08-26T07:27:26.357Z,3.70
2022-08-26T07:30:02.130Z,4.30
2022-08-26T07:32:33.763Z,2.97
2022-08-26T07:35:04.027Z,3.60
2022-08-26T07:37:35.502Z,3.35
2022-08-26T07:40:10.668Z,3.72
2022-08-26T07:42:42.105Z,3.60
2022-08-26T07:45:15.006Z,3.10
2022-08-26T07:47:45.672Z,3.55
2022-08-26T07:50:16.541Z,4.20
2022-08-26T07:52:46.845Z,3.47
2022-08-26T07:55:17.744Z,4.07
2022-08-26T07:57:48.593Z,2.80
2022-08-26T08:00:22.048Z,3.90
2022-08-26T08:05:33.563Z,3.00
2022-08-26T08:08:27.207Z,3.78
2022-08-26T08:10:56.084Z,3.40
2022-08-26T08:13:27.031Z,2.78
2022-08-26T08:16:00.738Z,2.90
2022-08-26T08:18:32.022Z,3.67
2022-08-26T08:21:21.170Z,3.53
2022-08-26T08:23:53.026Z,3.67
2022-08-26T08:26:23.796Z,3.80
2022-08-26T08:28:56.472Z,3.42
2022-08-26T08:34:26.217Z,4.20
2022-08-26T08:36:57.470Z,2.72
2022-08-26T08:39:28.342Z,3.42
2022-08-26T08:42:35.281Z,3.67
2022-08-26T08:45:10.177Z,3.45
2022-08-26T08:47:47.570Z,3.40
2022-08-26T08:50:25.268Z,3.17
2022-08-26T08:53:05.774Z,3.50
2022-08-26T08:55:50.746Z,3.58
2022-08-26T08:58:24.360Z,3.90
2022-08-26T09:01:01.240Z,4.18
2022-08-26T09:03:50.434Z,3.25
2022-08-26T09:06:20.952Z,3.40
2022-08-26T09:08:53.561Z,3.47
2022-08-26T09:11:27.630Z,4.10
2022-08-26T09:14:00.297Z,4.35
2022-08-26T09:16:40.261Z,3.20
2022-08-26T09:19:26.662Z,3.30
2022-08-26T09:22:01.614Z,3.25
2022-08-26T09:24:42.127Z,3.28
2022-08-26T09:27:39.306Z,3.67
2022-08-26T09:30:12.270Z,3.67
2022-08-26T09:32:44.596Z,3.20
2022-08-26T09:35:34.448Z,3.42
2022-08-26T09:38:06.996Z,3.90
2022-08-26T09:40:40.753Z,3.70
2022-08-26T09:43:15.996Z,3.30
2022-08-26T09:45:59.115Z,3.70
2022-08-26T09:48:35.449Z,3.80
2022-08-26T09:51:35.156Z,3.00
2022-08-26T09:54:08.241Z,3.55
2022-08-26T09:56:43.035Z,3.20
2022-08-26T09:59:18.826Z,3.20
2022-08-26T10:01:49.459Z,3.50
2022-08-26T10:04:26.687Z,3.80
2022-08-26T10:07:05.433Z,3.00
2022-08-26T10:09:39.034Z,3.30
2022-08-26T10:12:13.483Z,3.05
2022-08-26T10:14:50.329Z,3.40
2022-08-26T10:17:29.165Z,3.60
2022-08-26T10:20:06.593Z,3.30
2022-08-26T10:23:01.114Z,4.05
2022-08-26T10:25:36.233Z,3.38
2022-08-26T10:28:15.226Z,3.45
2022-08-26T10:30:50.135Z,3.90
2022-08-26T10:33:21.155Z,4.20
2022-08-26T10:35:55.560Z,3.10
2022-08-26T10:38:34.428Z,4.10
2022-08-26T10:41:10.784Z,4.07
2022-08-26T10:43:47.953Z,3.50
2022-08-26T10:46:27.106Z,3.13
2022-08-26T10:49:03.278Z,3.35
2022-08-26T10:51:42.271Z,3.30
2022-08-26T10:54:22.709Z,3.20
2022-08-26T11:03:31.653Z,3.03
2022-08-26T11:06:37.092Z,3.30
2022-08-26T11:37:03.503Z,2.90
2022-08-26T11:39:39.366Z,3.03
2022-08-26T11:42:23.494Z,3.42
2022-08-26T11:44:58.940Z,2.95
2022-08-26T11:47:34.143Z,3.28
2022-08-26T11:50:13.103Z,2.95
2022-08-26T11:52:54.415Z,3.35
2022-08-26T11:55:25.126Z,3.17
2022-08-26T11:58:00.996Z,3.55
2022-08-26T12:00:34.567Z,3.03
2022-08-26T12:03:12.000Z,3.25
2022-08-26T12:05:47.959Z,2.90
2022-08-26T12:08:23.472Z,3.70
2022-08-26T12:11:06.503Z,2.95
2022-08-26T12:13:39.162Z,2.90
2022-08-26T12:16:09.657Z,3.83
2022-08-26T12:18:41.846Z,3.47
2022-08-26T12:21:17.488Z,3.30
2022-08-26T12:23:54.724Z,3.63
2022-08-26T12:26:29.070Z,3.22
2022-08-26T12:29:12.699Z,3.40
2022-08-26T12:31:51.353Z,4.10
2022-08-26T12:34:23.060Z,3.53
2022-08-26T12:39:53.190Z,3.22
2022-08-26T12:42:43.545Z,3.50
2022-08-26T12:45:13.878Z,2.83
2022-08-26T12:47:45.950Z,3.50
2022-08-26T12:50:23.422Z,2.70
2022-08-26T12:53:01.861Z,2.92
2022-08-26T12:55:44.158Z,3.17
2022-08-26T12:58:29.238Z,2.25
2022-08-26T13:01:00.976Z,3.10
2022-08-26T13:03:45.702Z,3.08
2022-08-26T13:06:20.635Z,3.20
2022-08-26T13:08:51.931Z,3.05
2022-08-26T13:11:27.542Z,3.38
2022-08-26T13:14:00.610Z,3.33
2022-08-26T13:16:32.545Z,3.00
2022-08-26T13:19:05.277Z,2.88
2022-08-26T13:21:38.559Z,2.88
2022-08-26T13:24:13.486Z,3.63
2022-08-26T13:26:49.152Z,3.42
2022-08-26T13:29:19.498Z,2.35
2022-08-26T13:31:51.111Z,3.20
2022-08-26T13:34:22.951Z,2.90
2022-08-26T13:36:56.454Z,2.90
2022-08-26T13:39:27.719Z,3.38
2022-08-26T13:42:00.557Z,3.35
2022-08-26T13:44:30.726Z,3.97
2022-08-26T13:47:00.895Z,2.63
2022-08-26T13:49:31.166Z,3.67
2022-08-26T13:52:02.091Z,3.67
2022-08-26T13:54:32.410Z,3.67
2022-08-26T13:57:06.123Z,3.50
2022-08-26T13:59:36.348Z,3.60
2022-08-26T14:02:07.034Z,3.00
2022-08-26T14:04:38.845Z,3.28
2022-08-26T14:07:09.196Z,3.25
2022-08-26T14:09:40.559Z,3.15
2022-08-26T14:12:13.490Z,2.90
2022-08-26T14:14:43.717Z,3.15
2022-08-26T14:17:16.250Z,3.47
2022-08-26T14:19:49.523Z,3.33
2022-08-26T14:22:21.628Z,3.72
2022-08-26T14:24:52.798Z,3.15
2022-08-26T14:27:25.624Z,3.47
2022-08-26T14:29:59.596Z,2.95
2022-08-26T14:32:32.328Z,2.88
2022-08-26T14:35:02.707Z,3.67
2022-08-26T14:37:33.256Z,3.03
2022-08-26T14:40:06.052Z,3.08
2022-08-26T14:42:39.681Z,3.25
2022-08-26T14:45:13.418Z,3.15
2022-08-26T14:47:43.738Z,3.63
2022-08-26T14:50:14.456Z,3.00
2022-08-26T14:52:57.498Z,3.30
2022-08-26T14:55:27.893Z,3.03
2022-08-26T14:58:00.870Z,3.53
2022-08-26T15:00:31.866Z,3.25
2022-08-26T15:03:02.407Z,3.00
2022-08-26T15:05:33.089Z,3.03
2022-08-26T15:08:04.805Z,3.00
2022-08-26T15:10:35.167Z,3.72
2022-08-26T15:13:08.072Z,3.47
2022-08-26T15:15:40.927Z,2.78
2022-08-26T15:18:11.163Z,3.05
2022-08-26T15:20:41.390Z,3.00
2022-08-26T15:23:11.916Z,2.65
2022-08-26T15:25:42.691Z,3.10
2022-08-26T15:28:15.868Z,3.03
2022-08-26T15:30:46.595Z,2.92
2022-08-26T15:33:16.955Z,3.00
2022-08-26T15:35:47.189Z,2.88
2022-08-26T15:38:19.551Z,2.70
2022-08-26T15:40:49.907Z,3.65
2022-08-26T15:43:28.386Z,3.42
2022-08-26T15:46:01.172Z,3.00
2022-08-26T15:48:31.636Z,3.30
2022-08-26T15:51:03.754Z,3.55
2022-08-26T15:53:36.282Z,2.80
2022-08-26T15:56:06.873Z,3.40
2022-08-26T15:58:42.723Z,4.13
2022-08-26T16:01:15.054Z,3.35
2022-08-26T16:03:58.823Z,3.33
2022-08-26T16:06:31.520Z,2.92
2022-08-26T16:09:02.165Z,3.53
2022-08-26T16:11:32.337Z,3.03
2022-08-26T16:14:05.227Z,2.95
2022-08-26T16:16:35.475Z,3.40
2022-08-26T16:19:07.632Z,2.92
2022-08-26T16:21:38.836Z,3.23
2022-08-26T16:24:09.403Z,3.10
2022-08-26T16:26:41.755Z,3.58
2022-08-26T16:29:17.532Z,2.97
2022-08-26T16:31:50.624Z,2.90
2022-08-26T16:34:20.851Z,3.10
2022-08-26T16:36:51.126Z,2.83
2022-08-26T16:39:21.368Z,2.90
2022-08-26T16:41:51.592Z,2.92
2022-08-26T16:44:24.653Z,3.08
2022-08-26T16:47:00.909Z,3.10
2022-08-26T16:49:31.149Z,3.55
2022-08-26T16:52:01.376Z,3.47
2022-08-26T16:54:31.577Z,4.03
2022-08-26T16:57:01.752Z,4.05
2022-08-26T16:59:35.731Z,4.47
2022-08-26T17:02:06.028Z,4.15
2022-08-26T17:04:36.519Z,3.88
2022-08-26T17:07:07.009Z,4.05
2022-08-26T17:09:37.893Z,4.13
2022-08-26T17:12:11.866Z,3.95
2022-08-26T17:14:45.880Z,4.00
2022-08-26T17:17:16.151Z,3.63
2022-08-26T17:19:47.131Z,3.55
2022-08-26T17:22:18.011Z,3.92
2022-08-26T17:24:48.269Z,4.25
2022-08-26T17:27:21.037Z,3.67
2022-08-26T17:29:53.875Z,3.80
2022-08-26T17:32:24.291Z,4.15
2022-08-26T17:34:54.604Z,3.88
2022-08-26T17:37:24.847Z,4.40
2022-08-26T17:39:55.109Z,3.47
2022-08-26T17:42:31.521Z,4.28
2022-08-26T17:45:04.762Z,3.88
2022-08-26T17:47:35.653Z,3.55
2022-08-26T17:50:09.590Z,3.30
2022-08-26T17:52:41.053Z,3.85
2022-08-26T17:55:13.347Z,3.88
2022-08-26T17:57:44.063Z,3.75
2022-08-26T18:00:28.485Z,3.63
2022-08-26T18:02:59.254Z,3.58
2022-08-26T18:05:30.033Z,3.80
2022-08-26T18:08:00.272Z,3.67
2022-08-26T18:10:31.483Z,3.47
2022-08-26T18:13:01.962Z,3.95
2022-08-26T18:15:35.021Z,3.85
2022-08-26T18:18:05.307Z,4.32
2022-08-26T18:20:35.543Z,3.85
2022-08-26T18:23:08.856Z,4.22
2022-08-26T18:25:42.400Z,3.25
2022-08-26T18:28:12.985Z,3.75
2022-08-26T18:30:48.184Z,3.22
2022-08-26T18:33:19.456Z,3.78
2022-08-26T18:35:50.063Z,4.10
2022-08-26T18:38:20.273Z,3.35
2022-08-26T18:40:52.724Z,3.70
2022-08-26T18:43:23.554Z,3.42
2022-08-26T18:46:04.420Z,3.53
2022-08-26T18:48:34.872Z,3.50
2022-08-26T18:51:05.172Z,3.70
2022-08-26T18:53:37.106Z,4.30
2022-08-26T18:56:07.500Z,3.20
2022-08-26T18:58:37.767Z,3.03
2022-08-26T19:01:10.687Z,3.40
2022-08-26T19:03:41.015Z,3.47
2022-08-26T19:06:11.659Z,3.15
2022-08-26T19:08:44.626Z,3.40
2022-08-26T19:11:15.623Z,3.45
2022-08-26T19:13:47.441Z,4.40
2022-08-26T19:16:22.655Z,3.58
2022-08-26T19:18:53.537Z,3.30
2022-08-26T19:21:25.398Z,3.50
2022-08-26T19:23:59.395Z,3.38
2022-08-26T19:26:30.508Z,3.60
2022-08-26T19:29:02.099Z,4.22
2022-08-26T19:31:34.902Z,3.15
2022-08-26T19:34:07.218Z,3.30
2022-08-26T19:36:39.285Z,3.25
2022-08-26T19:39:13.624Z,3.28
2022-08-26T19:41:44.280Z,4.20
2022-08-26T19:44:37.637Z,2.92
2022-08-26T19:47:14.315Z,3.47
2022-08-26T19:49:45.019Z,2.60
2022-08-26T19:52:16.087Z,3.30
2022-08-26T19:54:46.335Z,2.95
2022-08-26T19:57:16.636Z,2.67
2022-08-26T19:59:47.249Z,3.05
2022-08-26T20:02:20.213Z,3.90
2022-08-26T20:04:50.614Z,3.38
2022-08-26T20:07:20.939Z,2.97
2022-08-26T20:09:52.176Z,3.05
2022-08-26T20:12:22.557Z,3.13
2022-08-26T20:14:52.789Z,3.00
2022-08-26T20:17:25.625Z,2.85
2022-08-26T20:20:14.724Z,2.93
2022-08-26T20:22:58.699Z,2.88
2022-08-26T20:25:29.433Z,3.67
2022-08-26T20:27:59.884Z,3.28
2022-08-26T20:30:30.188Z,2.88
2022-08-26T20:33:03.084Z,3.08
2022-08-26T20:35:33.824Z,3.23
2022-08-26T20:38:04.150Z,3.35
2022-08-26T20:40:35.711Z,2.80
2022-08-26T20:43:06.401Z,3.15
2022-08-26T20:45:37.607Z,2.92
2022-08-26T20:48:11.016Z,3.13
2022-08-26T20:50:41.906Z,2.67
2022-08-26T20:53:12.179Z,3.33
2022-08-26T20:55:42.529Z,2.50
2022-08-26T20:58:12.814Z,3.90
2022-08-26T21:00:43.084Z,2.83
2022-08-26T21:03:15.926Z,2.95
2022-08-26T21:05:46.692Z,2.70
2022-08-26T21:08:16.957Z,2.78
2022-08-26T21:10:48.766Z,3.30
2022-08-26T21:13:19.755Z,2.40
2022-08-26T21:15:50.176Z,2.63
2022-08-26T21:18:23.313Z,3.20
2022-08-26T21:20:53.845Z,3.43
2022-08-26T21:23:28.702Z,3.28
2022-08-26T21:25:59.547Z,2.60
2022-08-26T21:28:29.719Z,3.03
2022-08-26T21:31:00.343Z,3.08
2022-08-26T21:33:33.258Z,2.55
2022-08-26T21:36:03.512Z,3.10
2022-08-26T21:38:34.237Z,2.78
2022-08-26T21:41:07.086Z,4.00
2022-08-26T21:43:39.829Z,2.70
2022-08-26T21:46:15.204Z,2.65
2022-08-26T21:48:50.941Z,3.05
2022-08-26T21:51:23.989Z,2.85
2022-08-26T21:53:55.105Z,2.78
2022-08-26T21:56:31.697Z,2.72
2022-08-26T21:59:02.954Z,2.83
2022-08-26T22:01:35.144Z,2.78
2022-08-26T22:04:10.945Z,2.75
2022-08-26T22:06:46.033Z,3.00
2022-08-26T22:09:17.597Z,2.30
2022-08-26T22:11:48.851Z,2.63
2022-08-26T22:14:31.328Z,2.45
2022-08-26T22:17:05.395Z,2.28
2022-08-26T22:20:03.022Z,2.70
2022-08-26T22:22:41.687Z,2.10
2022-08-26T22:25:13.241Z,2.90
2022-08-26T22:27:43.425Z,2.90
2022-08-26T22:30:14.318Z,2.60
2022-08-26T22:32:45.790Z,2.30
2022-08-26T22:35:29.064Z,2.85
2022-08-26T22:38:01.096Z,2.60
2022-08-26T22:40:31.444Z,4.47
2022-08-26T22:43:02.337Z,2.80
2022-08-26T22:45:34.490Z,2.35
2022-08-26T22:48:06.749Z,2.17
2022-08-26T22:50:40.022Z,3.03
2022-08-26T22:53:10.233Z,2.65
2022-08-26T22:55:40.715Z,2.63
2022-08-26T22:58:14.755Z,2.50
2022-08-26T23:00:45.984Z,2.88
2022-08-26T23:03:19.510Z,2.08
2022-08-26T23:05:53.527Z,2.58
2022-08-26T23:08:26.115Z,2.45
2022-08-26T23:10:56.723Z,3.13
2022-08-26T23:13:28.209Z,2.75
2022-08-26T23:16:04.083Z,3.45
2022-08-26T23:18:40.836Z,2.35
2022-08-26T23:21:15.321Z,2.70
2022-08-26T23:23:53.031Z,2.72
2022-08-26T23:27:19.959Z,2.40
2022-08-26T23:29:50.251Z,2.60
2022-08-26T23:32:20.409Z,2.83
2022-08-26T23:34:59.743Z,2.40
2022-08-26T23:37:36.365Z,2.58
2022-08-26T23:40:13.969Z,2.17
2022-08-26T23:42:44.210Z,2.50
2022-08-26T23:45:18.609Z,2.25
2022-08-26T23:47:50.679Z,2.72
2022-08-26T23:50:22.146Z,2.53
2022-08-26T23:53:08.785Z,2.70
2022-08-26T23:55:40.316Z,2.45
2022-08-26T23:58:10.735Z,2.67
